sensor_id;sensor_type;location;lat;lon;timestamp;pressure;altitude;pressure_sealevel;temperature;humidity
61757;BME280;57225;61.460;24.060;2023-03-13T00:00:54;98276.16;;;-7.03;97.47
61757;BME280;57225;61.460;24.060;2023-03-13T00:03:39;98271.97;;;-7.00;97.60
61757;BME280;57225;61.460;24.060;2023-03-13T00:06:26;98280.88;;;-7.00;97.56
61757;BME280;57225;61.460;24.060;2023-03-13T00:09:14;98274.56;;;-7.04;97.89
61757;BME280;57225;61.460;24.060;2023-03-13T00:11:58;98270.06;;;-7.00;97.26
61757;BME280;57225;61.460;24.060;2023-03-13T00:14:43;98282.03;;;-6.88;96.50
61757;BME280;57225;61.460;24.060;2023-03-13T00:17:27;98280.31;;;-6.72;95.61
61757;BME280;57225;61.460;24.060;2023-03-13T00:20:12;98277.72;;;-6.57;94.82
61757;BME280;57225;61.460;24.060;2023-03-13T00:22:56;98277.63;;;-6.60;94.11
61757;BME280;57225;61.460;24.060;2023-03-13T00:25:41;98274.34;;;-6.66;94.41
61757;BME280;57225;61.460;24.060;2023-03-13T00:28:30;98254.31;;;-6.85;95.10
61757;BME280;57225;61.460;24.060;2023-03-13T00:31:20;98266.53;;;-6.79;94.96
61757;BME280;57225;61.460;24.060;2023-03-13T00:34:04;98263.81;;;-6.79;94.27
61757;BME280;57225;61.460;24.060;2023-03-13T00:36:49;98265.06;;;-6.77;94.48
61757;BME280;57225;61.460;24.060;2023-03-13T00:39:33;98269.47;;;-6.72;94.39
61757;BME280;57225;61.460;24.060;2023-03-13T00:42:18;98279.38;;;-6.76;94.44
61757;BME280;57225;61.460;24.060;2023-03-13T00:45:03;98272.66;;;-6.70;93.62
61757;BME280;57225;61.460;24.060;2023-03-13T00:48:06;98261.31;;;-6.84;93.75
61757;BME280;57225;61.460;24.060;2023-03-13T00:50:50;98271.03;;;-6.83;93.99
61757;BME280;57225;61.460;24.060;2023-03-13T00:53:35;98277.78;;;-6.89;93.89
61757;BME280;57225;61.460;24.060;2023-03-13T00:56:20;98274.41;;;-6.86;94.27
61757;BME280;57225;61.460;24.060;2023-03-13T00:59:04;98280.69;;;-6.95;94.28
61757;BME280;57225;61.460;24.060;2023-03-13T01:01:49;98284.09;;;-6.85;93.22
61757;BME280;57225;61.460;24.060;2023-03-13T01:04:33;98283.38;;;-6.95;93.97
61757;BME280;57225;61.460;24.060;2023-03-13T01:07:17;98292.72;;;-7.04;94.54
61757;BME280;57225;61.460;24.060;2023-03-13T01:10:02;98294.88;;;-6.98;93.61
61757;BME280;57225;61.460;24.060;2023-03-13T01:12:46;98288.06;;;-7.16;94.14
61757;BME280;57225;61.460;24.060;2023-03-13T01:15:34;98292.13;;;-7.10;94.35
61757;BME280;57225;61.460;24.060;2023-03-13T01:18:19;98295.97;;;-7.11;94.97
61757;BME280;57225;61.460;24.060;2023-03-13T01:21:04;98287.69;;;-7.14;94.01
61757;BME280;57225;61.460;24.060;2023-03-13T01:23:50;98295.06;;;-7.15;93.89
61757;BME280;57225;61.460;24.060;2023-03-13T01:26:34;98292.63;;;-7.28;94.59
61757;BME280;57225;61.460;24.060;2023-03-13T01:29:19;98293.31;;;-7.19;94.93
61757;BME280;57225;61.460;24.060;2023-03-13T01:32:04;98296.66;;;-7.02;93.81
61757;BME280;57225;61.460;24.060;2023-03-13T01:34:48;98296.47;;;-6.97;93.67
61757;BME280;57225;61.460;24.060;2023-03-13T01:37:33;98301.38;;;-7.11;93.42
61757;BME280;57225;61.460;24.060;2023-03-13T01:40:17;98305.34;;;-7.08;93.47
61757;BME280;57225;61.460;24.060;2023-03-13T01:43:15;98309.13;;;-7.21;93.46
61757;BME280;57225;61.460;24.060;2023-03-13T01:49:13;98307.19;;;-7.42;94.95
61757;BME280;57225;61.460;24.060;2023-03-13T01:52:05;98319.78;;;-7.25;94.61
61757;BME280;57225;61.460;24.060;2023-03-13T01:55:10;98328.31;;;-7.35;94.63
61757;BME280;57225;61.460;24.060;2023-03-13T01:57:59;98323.69;;;-7.35;94.89
61757;BME280;57225;61.460;24.060;2023-03-13T02:00:44;98327.25;;;-7.43;94.83
61757;BME280;57225;61.460;24.060;2023-03-13T02:03:29;98328.69;;;-7.45;95.25
61757;BME280;57225;61.460;24.060;2023-03-13T02:06:14;98330.75;;;-7.42;95.26
61757;BME280;57225;61.460;24.060;2023-03-13T02:09:08;98336.34;;;-7.47;95.47
61757;BME280;57225;61.460;24.060;2023-03-13T02:12:08;98334.25;;;-7.42;95.54
61757;BME280;57225;61.460;24.060;2023-03-13T02:14:55;98334.16;;;-7.54;95.53
61757;BME280;57225;61.460;24.060;2023-03-13T02:17:40;98340.81;;;-7.51;96.27
61757;BME280;57225;61.460;24.060;2023-03-13T02:20:25;98339.97;;;-7.43;96.28
61757;BME280;57225;61.460;24.060;2023-03-13T02:23:26;98344.47;;;-7.47;95.48
61757;BME280;57225;61.460;24.060;2023-03-13T02:26:14;98347.81;;;-7.50;96.24
61757;BME280;57225;61.460;24.060;2023-03-13T02:28:59;98353.88;;;-7.53;96.37
61757;BME280;57225;61.460;24.060;2023-03-13T02:31:47;98364.56;;;-7.57;96.28
61757;BME280;57225;61.460;24.060;2023-03-13T02:34:34;98363.13;;;-7.54;96.49
61757;BME280;57225;61.460;24.060;2023-03-13T02:37:26;98350.31;;;-7.66;96.48
61757;BME280;57225;61.460;24.060;2023-03-13T02:40:15;98367.78;;;-7.63;96.72
61757;BME280;57225;61.460;24.060;2023-03-13T02:43:08;98362.56;;;-7.68;96.77
61757;BME280;57225;61.460;24.060;2023-03-13T02:46:12;98361.03;;;-7.78;97.14
61757;BME280;57225;61.460;24.060;2023-03-13T02:48:57;98369.66;;;-7.85;97.24
61757;BME280;57225;61.460;24.060;2023-03-13T02:51:43;98370.97;;;-7.99;97.40
61757;BME280;57225;61.460;24.060;2023-03-13T02:54:34;98360.56;;;-8.18;97.86
61757;BME280;57225;61.460;24.060;2023-03-13T02:57:21;98381.16;;;-8.05;99.02
61757;BME280;57225;61.460;24.060;2023-03-13T03:00:06;98382.31;;;-8.15;98.83
61757;BME280;57225;61.460;24.060;2023-03-13T03:02:55;98377.78;;;-8.31;99.14
61757;BME280;57225;61.460;24.060;2023-03-13T03:05:39;98391.75;;;-8.29;100.00
61757;BME280;57225;61.460;24.060;2023-03-13T03:08:24;98390.81;;;-8.33;100.00
61757;BME280;57225;61.460;24.060;2023-03-13T03:11:09;98394.66;;;-8.43;100.00
61757;BME280;57225;61.460;24.060;2023-03-13T03:13:53;98407.38;;;-8.43;100.00
61757;BME280;57225;61.460;24.060;2023-03-13T03:16:38;98400.38;;;-8.44;100.00
61757;BME280;57225;61.460;24.060;2023-03-13T03:19:22;98398.16;;;-8.42;100.00
61757;BME280;57225;61.460;24.060;2023-03-13T03:22:07;98398.34;;;-8.56;100.00
61757;BME280;57225;61.460;24.060;2023-03-13T03:24:51;98411.50;;;-8.55;100.00
61757;BME280;57225;61.460;24.060;2023-03-13T03:27:36;98415.16;;;-8.59;100.00
61757;BME280;57225;61.460;24.060;2023-03-13T03:30:20;98411.06;;;-8.74;100.00
61757;BME280;57225;61.460;24.060;2023-03-13T03:33:08;98413.59;;;-8.69;100.00
61757;BME280;57225;61.460;24.060;2023-03-13T03:36:01;98428.34;;;-8.58;100.00
61757;BME280;57225;61.460;24.060;2023-03-13T03:38:46;98426.28;;;-8.61;100.00
61757;BME280;57225;61.460;24.060;2023-03-13T03:41:30;98415.81;;;-8.53;100.00
61757;BME280;57225;61.460;24.060;2023-03-13T03:44:15;98435.66;;;-8.41;100.00
61757;BME280;57225;61.460;24.060;2023-03-13T03:46:59;98425.16;;;-8.42;100.00
61757;BME280;57225;61.460;24.060;2023-03-13T03:49:44;98429.91;;;-8.39;100.00
61757;BME280;57225;61.460;24.060;2023-03-13T03:52:28;98433.72;;;-8.40;100.00
61757;BME280;57225;61.460;24.060;2023-03-13T03:55:13;98450.75;;;-8.48;100.00
61757;BME280;57225;61.460;24.060;2023-03-13T03:57:57;98440.09;;;-8.53;100.00
61757;BME280;57225;61.460;24.060;2023-03-13T04:00:43;98430.72;;;-8.56;100.00
61757;BME280;57225;61.460;24.060;2023-03-13T04:03:28;98436.28;;;-8.52;100.00
61757;BME280;57225;61.460;24.060;2023-03-13T04:06:12;98439.59;;;-8.47;100.00
61757;BME280;57225;61.460;24.060;2023-03-13T04:08:57;98444.72;;;-8.54;100.00
61757;BME280;57225;61.460;24.060;2023-03-13T04:11:41;98449.91;;;-8.40;100.00
61757;BME280;57225;61.460;24.060;2023-03-13T04:14:25;98442.28;;;-8.47;100.00
61757;BME280;57225;61.460;24.060;2023-03-13T04:17:11;98447.88;;;-8.35;100.00
61757;BME280;57225;61.460;24.060;2023-03-13T04:19:55;98445.31;;;-8.40;100.00
61757;BME280;57225;61.460;24.060;2023-03-13T04:22:40;98430.56;;;-8.42;100.00
61757;BME280;57225;61.460;24.060;2023-03-13T04:25:25;98431.84;;;-8.48;100.00
61757;BME280;57225;61.460;24.060;2023-03-13T04:28:10;98442.16;;;-8.59;100.00
61757;BME280;57225;61.460;24.060;2023-03-13T04:30:54;98434.06;;;-8.68;100.00
61757;BME280;57225;61.460;24.060;2023-03-13T04:33:40;98445.19;;;-8.69;100.00
61757;BME280;57225;61.460;24.060;2023-03-13T04:36:24;98445.97;;;-8.77;100.00
61757;BME280;57225;61.460;24.060;2023-03-13T04:39:09;98440.72;;;-8.91;100.00
61757;BME280;57225;61.460;24.060;2023-03-13T04:41:54;98444.06;;;-8.94;100.00
61757;BME280;57225;61.460;24.060;2023-03-13T04:44:39;98447.38;;;-8.97;100.00
61757;BME280;57225;61.460;24.060;2023-03-13T04:47:23;98451.69;;;-9.05;100.00
61757;BME280;57225;61.460;24.060;2023-03-13T04:50:08;98452.16;;;-9.11;100.00
61757;BME280;57225;61.460;24.060;2023-03-13T04:52:52;98441.63;;;-9.21;100.00
61757;BME280;57225;61.460;24.060;2023-03-13T04:55:37;98455.13;;;-9.21;100.00
61757;BME280;57225;61.460;24.060;2023-03-13T04:58:24;98449.28;;;-9.23;100.00
61757;BME280;57225;61.460;24.060;2023-03-13T05:01:09;98427.75;;;-9.54;100.00
61757;BME280;57225;61.460;24.060;2023-03-13T05:03:54;98463.47;;;-9.49;100.00
61757;BME280;57225;61.460;24.060;2023-03-13T05:06:39;98471.69;;;-9.54;100.00
61757;BME280;57225;61.460;24.060;2023-03-13T05:09:23;98477.38;;;-9.64;100.00
61757;BME280;57225;61.460;24.060;2023-03-13T05:12:08;98465.53;;;-9.85;100.00
61757;BME280;57225;61.460;24.060;2023-03-13T05:14:52;98483.78;;;-9.82;100.00
61757;BME280;57225;61.460;24.060;2023-03-13T05:17:37;98491.50;;;-9.89;100.00
61757;BME280;57225;61.460;24.060;2023-03-13T05:20:21;98488.31;;;-9.91;100.00
61757;BME280;57225;61.460;24.060;2023-03-13T05:23:06;98494.88;;;-9.84;100.00
61757;BME280;57225;61.460;24.060;2023-03-13T05:25:50;98489.19;;;-9.82;100.00
61757;BME280;57225;61.460;24.060;2023-03-13T05:28:35;98481.19;;;-9.96;100.00
61757;BME280;57225;61.460;24.060;2023-03-13T05:31:19;98461.91;;;-10.11;100.00
61757;BME280;57225;61.460;24.060;2023-03-13T05:34:04;98492.47;;;-9.85;100.00
61757;BME280;57225;61.460;24.060;2023-03-13T05:36:48;98505.88;;;-9.71;100.00
61757;BME280;57225;61.460;24.060;2023-03-13T05:39:33;98476.94;;;-9.88;100.00
61757;BME280;57225;61.460;24.060;2023-03-13T05:42:17;98504.31;;;-9.64;100.00
61757;BME280;57225;61.460;24.060;2023-03-13T05:45:02;98501.13;;;-9.66;100.00
61757;BME280;57225;61.460;24.060;2023-03-13T05:47:46;98508.75;;;-9.68;99.15
61757;BME280;57225;61.460;24.060;2023-03-13T05:50:31;98502.66;;;-9.73;100.00
61757;BME280;57225;61.460;24.060;2023-03-13T05:53:15;98488.66;;;-9.53;100.00
61757;BME280;57225;61.460;24.060;2023-03-13T05:56:00;98499.63;;;-8.84;100.00
61757;BME280;57225;61.460;24.060;2023-03-13T05:58:44;98501.56;;;-8.68;98.55
61757;BME280;57225;61.460;24.060;2023-03-13T06:01:29;98505.84;;;-8.49;97.79
61757;BME280;57225;61.460;24.060;2023-03-13T06:04:13;98514.75;;;-8.32;97.63
61757;BME280;57225;61.460;24.060;2023-03-13T06:06:58;98514.25;;;-8.17;97.04
61757;BME280;57225;61.460;24.060;2023-03-13T06:09:42;98509.91;;;-7.92;96.08
61757;BME280;57225;61.460;24.060;2023-03-13T06:12:27;98517.16;;;-7.66;94.47
61757;BME280;57225;61.460;24.060;2023-03-13T06:15:11;98507.25;;;-7.54;93.40
61757;BME280;57225;61.460;24.060;2023-03-13T06:17:56;98530.38;;;-7.27;91.67
61757;BME280;57225;61.460;24.060;2023-03-13T06:20:40;98540.44;;;-7.27;90.98
61757;BME280;57225;61.460;24.060;2023-03-13T06:23:24;98541.03;;;-7.22;91.41
61757;BME280;57225;61.460;24.060;2023-03-13T06:26:09;98537.56;;;-7.40;91.87
61757;BME280;57225;61.460;24.060;2023-03-13T06:28:54;98535.66;;;-7.31;91.94
61757;BME280;57225;61.460;24.060;2023-03-13T06:31:38;98541.47;;;-7.20;92.11
61757;BME280;57225;61.460;24.060;2023-03-13T06:34:22;98544.03;;;-7.15;91.77
61757;BME280;57225;61.460;24.060;2023-03-13T06:55:53;98565.25;;;-6.17;87.87
61757;BME280;57225;61.460;24.060;2023-03-13T06:58:37;98567.69;;;-6.03;88.22
61757;BME280;57225;61.460;24.060;2023-03-13T07:01:22;98568.28;;;-5.85;87.54
61757;BME280;57225;61.460;24.060;2023-03-13T07:04:10;98574.94;;;-5.62;86.64
61757;BME280;57225;61.460;24.060;2023-03-13T07:06:55;98573.41;;;-5.51;86.55
61757;BME280;57225;61.460;24.060;2023-03-13T07:09:40;98582.09;;;-5.12;85.20
61757;BME280;57225;61.460;24.060;2023-03-13T07:12:24;98581.63;;;-5.02;84.15
61757;BME280;57225;61.460;24.060;2023-03-13T07:15:09;98578.81;;;-4.81;83.48
61757;BME280;57225;61.460;24.060;2023-03-13T07:17:56;98578.25;;;-4.51;82.82
61757;BME280;57225;61.460;24.060;2023-03-13T07:20:41;98574.94;;;-4.44;83.07
61757;BME280;57225;61.460;24.060;2023-03-13T07:23:28;98582.03;;;-4.15;82.04
61757;BME280;57225;61.460;24.060;2023-03-13T07:26:14;98594.19;;;-3.85;80.61
61757;BME280;57225;61.460;24.060;2023-03-13T07:28:58;98590.03;;;-3.39;78.04
61757;BME280;57225;61.460;24.060;2023-03-13T07:31:43;98596.00;;;-3.33;77.77
61757;BME280;57225;61.460;24.060;2023-03-13T07:34:27;98602.47;;;-3.10;77.14
61757;BME280;57225;61.460;24.060;2023-03-13T07:37:12;98597.47;;;-2.92;76.47
61757;BME280;57225;61.460;24.060;2023-03-13T07:39:57;98597.22;;;-2.87;75.62
61757;BME280;57225;61.460;24.060;2023-03-13T07:42:41;98579.91;;;-2.79;75.90
61757;BME280;57225;61.460;24.060;2023-03-13T07:45:26;98597.66;;;-2.54;74.66
61757;BME280;57225;61.460;24.060;2023-03-13T07:48:10;98600.72;;;-2.55;74.78
61757;BME280;57225;61.460;24.060;2023-03-13T07:50:55;98599.22;;;-2.68;75.50
61757;BME280;57225;61.460;24.060;2023-03-13T07:53:39;98585.50;;;-2.40;74.11
61757;BME280;57225;61.460;24.060;2023-03-13T07:56:24;98595.75;;;-2.34;73.82
61757;BME280;57225;61.460;24.060;2023-03-13T07:59:09;98594.19;;;-2.35;74.61
61757;BME280;57225;61.460;24.060;2023-03-13T08:01:53;98586.75;;;-2.19;72.91
61757;BME280;57225;61.460;24.060;2023-03-13T08:04:38;98589.19;;;-2.14;73.85
61757;BME280;57225;61.460;24.060;2023-03-13T08:07:23;98589.47;;;-1.84;72.53
61757;BME280;57225;61.460;24.060;2023-03-13T08:10:07;98576.72;;;-1.76;72.44
61757;BME280;57225;61.460;24.060;2023-03-13T08:12:52;98575.81;;;-1.84;72.01
61757;BME280;57225;61.460;24.060;2023-03-13T08:15:36;98571.69;;;-1.55;71.41
61757;BME280;57225;61.460;24.060;2023-03-13T08:18:21;98569.31;;;-1.37;71.50
61757;BME280;57225;61.460;24.060;2023-03-13T08:21:08;98564.53;;;-1.21;71.16
61757;BME280;57225;61.460;24.060;2023-03-13T08:23:58;98564.16;;;-1.19;71.46
61757;BME280;57225;61.460;24.060;2023-03-13T08:26:43;98572.56;;;-1.09;71.66
61757;BME280;57225;61.460;24.060;2023-03-13T08:29:27;98570.44;;;-0.73;70.51
61757;BME280;57225;61.460;24.060;2023-03-13T08:32:12;98575.25;;;-0.41;69.55
61757;BME280;57225;61.460;24.060;2023-03-13T08:34:56;98569.25;;;-0.23;68.23
61757;BME280;57225;61.460;24.060;2023-03-13T08:37:41;98563.97;;;-0.09;67.37
61757;BME280;57225;61.460;24.060;2023-03-13T08:40:25;98557.03;;;-0.03;66.84
61757;BME280;57225;61.460;24.060;2023-03-13T08:43:10;98568.44;;;0.03;66.06
61757;BME280;57225;61.460;24.060;2023-03-13T08:45:55;98556.97;;;-0.07;67.06
61757;BME280;57225;61.460;24.060;2023-03-13T08:48:39;98573.22;;;0.09;66.14
61757;BME280;57225;61.460;24.060;2023-03-13T08:51:25;98573.97;;;0.06;65.89
61757;BME280;57225;61.460;24.060;2023-03-13T08:54:10;98582.38;;;-0.06;66.43
61757;BME280;57225;61.460;24.060;2023-03-13T08:56:55;98574.31;;;-0.25;67.27
61757;BME280;57225;61.460;24.060;2023-03-13T08:59:39;98568.06;;;-0.26;67.51
61757;BME280;57225;61.460;24.060;2023-03-13T09:02:24;98578.22;;;-0.26;67.57
61757;BME280;57225;61.460;24.060;2023-03-13T09:05:08;98570.09;;;-0.19;67.41
61757;BME280;57225;61.460;24.060;2023-03-13T09:07:53;98574.75;;;0.07;66.52
61757;BME280;57225;61.460;24.060;2023-03-13T09:10:37;98568.50;;;0.06;66.54
61757;BME280;57225;61.460;24.060;2023-03-13T09:13:22;98549.09;;;0.18;65.41
61757;BME280;57225;61.460;24.060;2023-03-13T09:16:13;98549.66;;;0.34;65.31
61757;BME280;57225;61.460;24.060;2023-03-13T09:18:58;98543.50;;;0.45;63.77
61757;BME280;57225;61.460;24.060;2023-03-13T09:21:42;98542.78;;;0.48;64.01
61757;BME280;57225;61.460;24.060;2023-03-13T09:24:27;98532.25;;;0.53;63.21
61757;BME280;57225;61.460;24.060;2023-03-13T09:27:11;98532.72;;;0.59;61.97
61757;BME280;57225;61.460;24.060;2023-03-13T09:29:55;98536.28;;;0.63;62.49
61757;BME280;57225;61.460;24.060;2023-03-13T09:32:39;98539.06;;;0.66;60.02
61757;BME280;57225;61.460;24.060;2023-03-13T09:35:24;98535.59;;;0.73;59.38
61757;BME280;57225;61.460;24.060;2023-03-13T09:38:08;98528.53;;;0.72;60.34
61757;BME280;57225;61.460;24.060;2023-03-13T09:40:53;98532.94;;;0.84;60.79
61757;BME280;57225;61.460;24.060;2023-03-13T09:49:48;98538.84;;;0.82;59.39
61757;BME280;57225;61.460;24.060;2023-03-13T09:52:37;98535.03;;;0.97;60.28
61757;BME280;57225;61.460;24.060;2023-03-13T09:55:30;98543.75;;;1.06;59.64
61757;BME280;57225;61.460;24.060;2023-03-13T09:58:26;98538.78;;;1.23;59.06
61757;BME280;57225;61.460;24.060;2023-03-13T10:01:20;98527.09;;;1.29;56.54
61757;BME280;57225;61.460;24.060;2023-03-13T10:07:12;98514.22;;;1.37;56.82
61757;BME280;57225;61.460;24.060;2023-03-13T10:09:59;98513.13;;;1.48;56.25
61757;BME280;57225;61.460;24.060;2023-03-13T10:12:46;98502.88;;;1.38;56.54
61757;BME280;57225;61.460;24.060;2023-03-13T10:15:55;98494.16;;;1.29;58.15
61757;BME280;57225;61.460;24.060;2023-03-13T10:18:39;98496.72;;;1.59;55.01
61757;BME280;57225;61.460;24.060;2023-03-13T10:21:36;98490.78;;;1.50;53.11
61757;BME280;57225;61.460;24.060;2023-03-13T10:27:30;98486.91;;;1.58;50.32
61757;BME280;57225;61.460;24.060;2023-03-13T10:30:35;98485.31;;;1.53;51.56
61757;BME280;57225;61.460;24.060;2023-03-13T10:33:24;98487.34;;;1.67;50.87
61757;BME280;57225;61.460;24.060;2023-03-13T10:36:11;98481.06;;;1.63;53.13
61757;BME280;57225;61.460;24.060;2023-03-13T10:38:56;98482.28;;;1.73;54.24
61757;BME280;57225;61.460;24.060;2023-03-13T10:41:40;98466.97;;;1.68;53.10
61757;BME280;57225;61.460;24.060;2023-03-13T10:44:31;98480.41;;;1.87;52.15
61757;BME280;57225;61.460;24.060;2023-03-13T10:47:15;98489.84;;;1.93;52.20
61757;BME280;57225;61.460;24.060;2023-03-13T10:50:00;98481.97;;;1.88;51.08
61757;BME280;57225;61.460;24.060;2023-03-13T10:52:47;98479.28;;;1.95;48.94
61757;BME280;57225;61.460;24.060;2023-03-13T10:55:31;98487.09;;;1.93;50.29
61757;BME280;57225;61.460;24.060;2023-03-13T10:58:39;98477.34;;;2.10;51.54
61757;BME280;57225;61.460;24.060;2023-03-13T11:01:29;98471.06;;;2.10;51.86
61757;BME280;57225;61.460;24.060;2023-03-13T11:07:15;98464.03;;;2.12;49.65
61757;BME280;57225;61.460;24.060;2023-03-13T11:10:03;98455.41;;;2.24;50.99
61757;BME280;57225;61.460;24.060;2023-03-13T11:12:58;98440.50;;;2.25;48.86
61757;BME280;57225;61.460;24.060;2023-03-13T11:15:51;98440.91;;;2.31;48.28
61757;BME280;57225;61.460;24.060;2023-03-13T11:19:00;98438.94;;;2.35;47.06
61757;BME280;57225;61.460;24.060;2023-03-13T11:22:06;98439.00;;;2.63;46.02
61757;BME280;57225;61.460;24.060;2023-03-13T11:25:03;98435.06;;;2.78;44.15
61757;BME280;57225;61.460;24.060;2023-03-13T11:31:04;98428.75;;;2.32;44.23
61757;BME280;57225;61.460;24.060;2023-03-13T11:34:10;98407.84;;;2.02;44.48
61757;BME280;57225;61.460;24.060;2023-03-13T11:37:08;98405.91;;;2.07;45.16
61757;BME280;57225;61.460;24.060;2023-03-13T11:42:58;98420.38;;;1.96;45.13
61757;BME280;57225;61.460;24.060;2023-03-13T11:55:22;98400.28;;;1.71;51.88
61757;BME280;57225;61.460;24.060;2023-03-13T12:01:16;98398.31;;;1.72;49.42
61757;BME280;57225;61.460;24.060;2023-03-13T12:04:25;98402.28;;;1.74;49.34
61757;BME280;57225;61.460;24.060;2023-03-13T12:07:19;98395.19;;;1.73;49.35
61757;BME280;57225;61.460;24.060;2023-03-13T12:10:31;98391.69;;;1.80;48.71
61757;BME280;57225;61.460;24.060;2023-03-13T12:13:24;98387.81;;;1.98;45.26
61757;BME280;57225;61.460;24.060;2023-03-13T12:16:15;98374.47;;;1.86;44.53
61757;BME280;57225;61.460;24.060;2023-03-13T12:19:02;98371.72;;;1.86;43.35
61757;BME280;57225;61.460;24.060;2023-03-13T12:21:51;98367.81;;;1.94;41.97
61757;BME280;57225;61.460;24.060;2023-03-13T12:24:45;98359.94;;;1.82;41.86
61757;BME280;57225;61.460;24.060;2023-03-13T12:27:40;98355.63;;;1.92;42.87
61757;BME280;57225;61.460;24.060;2023-03-13T12:30:47;98348.63;;;2.23;42.23
61757;BME280;57225;61.460;24.060;2023-03-13T12:36:43;98354.91;;;2.41;40.00
61757;BME280;57225;61.460;24.060;2023-03-13T12:39:51;98342.72;;;2.28;41.47
61757;BME280;57225;61.460;24.060;2023-03-13T12:42:52;98350.22;;;2.27;41.31
61757;BME280;57225;61.460;24.060;2023-03-13T12:48:50;98343.94;;;2.20;45.57
61757;BME280;57225;61.460;24.060;2023-03-13T13:00:40;98324.31;;;2.57;42.75
61757;BME280;57225;61.460;24.060;2023-03-13T13:07:03;98306.22;;;2.10;43.71
61757;BME280;57225;61.460;24.060;2023-03-13T13:16:06;98288.03;;;1.41;45.68
61757;BME280;57225;61.460;24.060;2023-03-13T13:18:54;98268.38;;;1.29;46.52
61757;BME280;57225;61.460;24.060;2023-03-13T13:21:39;98273.91;;;1.43;47.54
61757;BME280;57225;61.460;24.060;2023-03-13T13:24:49;98271.56;;;1.38;47.21
61757;BME280;57225;61.460;24.060;2023-03-13T13:39:21;98232.19;;;0.91;49.85
61757;BME280;57225;61.460;24.060;2023-03-13T13:48:15;98195.28;;;0.74;52.53
61757;BME280;57225;61.460;24.060;2023-03-13T13:53:59;98190.94;;;0.63;51.84
61757;BME280;57225;61.460;24.060;2023-03-13T13:57:10;98177.91;;;0.46;53.24
61757;BME280;57225;61.460;24.060;2023-03-13T14:00:17;98177.94;;;0.49;54.28
61757;BME280;57225;61.460;24.060;2023-03-13T14:03:17;98164.63;;;0.51;54.57
61757;BME280;57225;61.460;24.060;2023-03-13T14:06:14;98153.66;;;0.51;54.29
61757;BME280;57225;61.460;24.060;2023-03-13T14:12:24;98146.97;;;0.42;55.99
61757;BME280;57225;61.460;24.060;2023-03-13T14:15:19;98146.59;;;0.43;54.97
61757;BME280;57225;61.460;24.060;2023-03-13T14:18:21;98133.19;;;0.27;54.81
61757;BME280;57225;61.460;24.060;2023-03-13T14:21:06;98120.63;;;0.19;55.78
61757;BME280;57225;61.460;24.060;2023-03-13T14:23:56;98117.88;;;0.19;55.30
61757;BME280;57225;61.460;24.060;2023-03-13T14:26:44;98106.47;;;0.07;56.61
61757;BME280;57225;61.460;24.060;2023-03-13T14:29:28;98099.03;;;0.04;57.80
61757;BME280;57225;61.460;24.060;2023-03-13T14:32:16;98089.66;;;0.08;57.85
61757;BME280;57225;61.460;24.060;2023-03-13T14:35:01;98082.59;;;0.00;59.97
61757;BME280;57225;61.460;24.060;2023-03-13T14:37:51;98083.72;;;-0.08;61.34
61757;BME280;57225;61.460;24.060;2023-03-13T14:40:37;98080.91;;;-0.19;62.32
61757;BME280;57225;61.460;24.060;2023-03-13T14:43:34;98071.16;;;-0.16;62.16
61757;BME280;57225;61.460;24.060;2023-03-13T14:46:30;98057.78;;;-0.28;62.47
61757;BME280;57225;61.460;24.060;2023-03-13T14:49:17;98055.00;;;-0.35;62.55
61757;BME280;57225;61.460;24.060;2023-03-13T14:52:22;98040.50;;;-0.39;62.31
61757;BME280;57225;61.460;24.060;2023-03-13T14:55:32;98034.31;;;-0.29;62.60
61757;BME280;57225;61.460;24.060;2023-03-13T15:01:24;98027.16;;;-0.52;64.22
61757;BME280;57225;61.460;24.060;2023-03-13T15:04:09;97999.78;;;-0.52;63.54
61757;BME280;57225;61.460;24.060;2023-03-13T15:07:01;98001.72;;;-0.56;63.59
61757;BME280;57225;61.460;24.060;2023-03-13T15:09:47;97964.00;;;-0.87;61.88
61757;BME280;57225;61.460;24.060;2023-03-13T15:12:41;97996.56;;;-0.68;62.61
61757;BME280;57225;61.460;24.060;2023-03-13T15:15:26;97967.50;;;-0.90;61.19
61757;BME280;57225;61.460;24.060;2023-03-13T15:18:31;97987.91;;;-0.77;59.96
61757;BME280;57225;61.460;24.060;2023-03-13T15:21:30;97986.28;;;-0.82;60.33
61757;BME280;57225;61.460;24.060;2023-03-13T15:24:16;97980.81;;;-0.85;60.11
61757;BME280;57225;61.460;24.060;2023-03-13T15:27:01;97972.94;;;-0.94;59.36
61757;BME280;57225;61.460;24.060;2023-03-13T15:29:46;97949.31;;;-1.19;60.06
61757;BME280;57225;61.460;24.060;2023-03-13T15:32:36;97945.94;;;-0.99;59.14
61757;BME280;57225;61.460;24.060;2023-03-13T15:35:29;97944.72;;;-1.08;61.12
61757;BME280;57225;61.460;24.060;2023-03-13T15:38:16;97947.03;;;-1.10;62.06
61757;BME280;57225;61.460;24.060;2023-03-13T15:41:01;97928.66;;;-1.13;61.47
61757;BME280;57225;61.460;24.060;2023-03-13T15:43:46;97917.34;;;-1.15;61.98
61757;BME280;57225;61.460;24.060;2023-03-13T15:46:31;97913.41;;;-1.18;62.04
61757;BME280;57225;61.460;24.060;2023-03-13T15:49:15;97898.09;;;-1.30;62.92
61757;BME280;57225;61.460;24.060;2023-03-13T15:52:00;97906.78;;;-1.13;61.75
61757;BME280;57225;61.460;24.060;2023-03-13T15:54:45;97885.63;;;-1.27;62.46
61757;BME280;57225;61.460;24.060;2023-03-13T15:57:29;97873.88;;;-1.31;63.61
61757;BME280;57225;61.460;24.060;2023-03-13T16:00:25;97858.59;;;-1.43;62.66
61757;BME280;57225;61.460;24.060;2023-03-13T16:03:20;97856.28;;;-1.41;63.18
61757;BME280;57225;61.460;24.060;2023-03-13T16:06:21;97854.75;;;-1.35;63.21
61757;BME280;57225;61.460;24.060;2023-03-13T16:09:13;97833.72;;;-1.27;62.85
61757;BME280;57225;61.460;24.060;2023-03-13T16:12:00;97823.53;;;-1.34;62.87
61757;BME280;57225;61.460;24.060;2023-03-13T16:14:44;97816.03;;;-1.44;63.20
61757;BME280;57225;61.460;24.060;2023-03-13T16:17:29;97789.09;;;-1.45;64.34
61757;BME280;57225;61.460;24.060;2023-03-13T16:20:16;97787.53;;;-1.50;65.01
61757;BME280;57225;61.460;24.060;2023-03-13T16:23:01;97785.56;;;-1.53;65.29
61757;BME280;57225;61.460;24.060;2023-03-13T16:25:46;97770.41;;;-1.43;65.19